createdAt,value
2019-02-10T00:01:51.328Z,14.73
2019-02-10T00:04:32.932Z,15.55
2019-02-10T00:07:07.380Z,10.20
2019-02-10T00:09:47.399Z,14.65
2019-02-10T00:12:20.547Z,11.53
2019-02-10T00:15:01.157Z,11.35
2019-02-10T00:17:36.471Z,15.48
2019-02-10T00:20:14.813Z,12.50
2019-02-10T00:22:52.009Z,14.70
2019-02-10T00:25:35.692Z,12.58
2019-02-10T00:28:11.312Z,13.48
2019-02-10T00:30:50.697Z,11.12
2019-02-10T00:33:24.097Z,13.87
2019-02-10T00:36:01.360Z,13.05
2019-02-10T00:38:38.523Z,13.22
2019-02-10T00:41:15.404Z,14.28
2019-02-10T00:43:47.795Z,12.60
2019-02-10T00:46:26.254Z,10.63
2019-02-10T00:49:01.496Z,12.82
2019-02-10T00:51:38.144Z,12.25
2019-02-10T00:54:10.626Z,11.75
2019-02-10T00:56:51.619Z,13.40
2019-02-10T00:59:26.295Z,10.68
2019-02-10T01:02:05.246Z,11.03
2019-02-10T01:04:38.366Z,10.23
2019-02-10T01:07:15.467Z,11.10
2019-02-10T01:09:49.106Z,11.45
2019-02-10T01:12:24.238Z,12.60
2019-02-10T01:14:55.331Z,15.20
2019-02-10T01:17:29.297Z,11.85
2019-02-10T01:20:01.951Z,12.58
2019-02-10T01:22:40.234Z,10.85
2019-02-10T01:25:12.396Z,11.40
2019-02-10T01:27:47.900Z,10.38
2019-02-10T01:30:19.938Z,12.25
2019-02-10T01:32:55.000Z,12.28
2019-02-10T01:35:28.126Z,10.93
2019-02-10T01:38:03.724Z,9.80
2019-02-10T01:40:38.184Z,10.75
2019-02-10T01:43:16.162Z,9.23
2019-02-10T01:45:50.032Z,9.85
2019-02-10T01:48:24.453Z,9.97
2019-02-10T01:50:57.093Z,9.00
2019-02-10T01:53:34.190Z,9.30
2019-02-10T01:56:06.019Z,10.25
2019-02-10T01:58:41.283Z,9.13
2019-02-10T02:01:14.072Z,9.57
2019-02-10T02:03:49.493Z,11.25
2019-02-10T02:06:22.453Z,10.93
2019-02-10T02:08:55.888Z,9.30
2019-02-10T02:11:30.534Z,11.30
2019-02-10T02:14:05.563Z,9.55
2019-02-10T02:16:39.063Z,9.60
2019-02-10T02:19:15.320Z,8.63
2019-02-10T02:21:48.747Z,11.18
2019-02-10T02:24:21.239Z,11.68
2019-02-10T02:27:01.892Z,10.20
2019-02-10T02:29:33.750Z,9.90
2019-02-10T02:32:06.944Z,8.43
2019-02-10T02:34:39.186Z,9.70
2019-02-10T02:37:12.180Z,9.00
2019-02-10T02:39:46.475Z,11.30
2019-02-10T02:42:18.775Z,8.53
2019-02-10T02:44:51.439Z,9.43
2019-02-10T02:47:24.692Z,8.53
2019-02-10T02:49:58.466Z,9.13
2019-02-10T02:52:32.645Z,11.93
2019-02-10T02:55:06.432Z,10.20
2019-02-10T02:57:39.562Z,9.68
2019-02-10T03:00:13.514Z,10.27
2019-02-10T03:02:43.843Z,9.95
2019-02-10T03:05:13.592Z,9.93
2019-02-10T03:07:44.331Z,10.47
2019-02-10T03:10:15.025Z,11.50
2019-02-10T03:12:46.914Z,8.35
2019-02-10T03:15:20.720Z,9.38
2019-02-10T03:17:53.285Z,10.98
2019-02-10T03:20:27.040Z,8.43
2019-02-10T03:22:59.553Z,10.80
2019-02-10T03:25:33.028Z,8.55
2019-02-10T03:28:08.029Z,10.03
2019-02-10T03:30:41.476Z,15.23
2019-02-10T03:33:13.238Z,10.25
2019-02-10T03:35:47.710Z,8.68
2019-02-10T03:38:23.017Z,8.15
2019-02-10T03:40:57.917Z,10.93
2019-02-10T03:43:31.176Z,10.72
2019-02-10T03:46:03.930Z,9.47
2019-02-10T03:48:37.140Z,11.50
2019-02-10T03:51:10.925Z,11.40
2019-02-10T03:53:46.136Z,9.73
2019-02-10T03:56:19.251Z,11.43
2019-02-10T03:58:51.849Z,10.17
2019-02-10T04:01:25.503Z,11.20
2019-02-10T04:03:56.672Z,8.93
2019-02-10T04:06:28.976Z,11.45
2019-02-10T04:09:03.112Z,10.38
2019-02-10T04:11:41.745Z,12.80
2019-02-10T04:14:15.441Z,12.18
2019-02-10T04:16:47.197Z,15.85
2019-02-10T04:19:19.122Z,13.15
2019-02-10T04:21:55.062Z,12.80
2019-02-10T04:24:27.276Z,10.30
2019-02-10T04:27:00.755Z,11.20
2019-02-10T04:29:33.803Z,13.45
2019-02-10T04:32:06.407Z,10.68
2019-02-10T04:34:39.724Z,16.73
2019-02-10T04:37:11.575Z,10.90
2019-02-10T04:39:49.004Z,13.35
2019-02-10T04:42:22.947Z,11.90
2019-02-10T04:44:54.117Z,10.85
2019-02-10T04:47:26.728Z,14.05
2019-02-10T04:50:00.383Z,12.35
2019-02-10T04:52:32.570Z,11.15
2019-02-10T04:55:06.016Z,11.33
2019-02-10T04:57:39.652Z,12.90
2019-02-10T05:00:13.934Z,17.45
2019-02-10T05:02:46.565Z,11.67
2019-02-10T05:05:20.375Z,11.90
2019-02-10T05:07:54.746Z,15.00
2019-02-10T05:10:27.536Z,14.07
2019-02-10T05:13:02.211Z,15.27
2019-02-10T05:15:34.476Z,12.23
2019-02-10T05:18:06.940Z,11.20
2019-02-10T05:20:39.112Z,11.18
2019-02-10T05:23:11.433Z,11.77
2019-02-10T05:25:43.044Z,13.43
2019-02-10T05:28:14.324Z,9.65
2019-02-10T05:30:47.399Z,10.82
2019-02-10T05:33:21.346Z,11.05
2019-02-10T05:35:52.623Z,9.27
2019-02-10T05:38:28.492Z,9.35
2019-02-10T05:41:04.853Z,10.90
2019-02-10T05:43:40.452Z,10.43
2019-02-10T05:46:11.835Z,9.60
2019-02-10T05:48:46.944Z,11.10
2019-02-10T05:51:18.412Z,10.88
2019-02-10T05:53:53.220Z,13.05
2019-02-10T05:56:24.681Z,10.15
2019-02-10T05:58:58.819Z,10.20
2019-02-10T06:02:03.282Z,9.45
2019-02-10T06:04:44.197Z,11.27
2019-02-10T06:07:19.106Z,10.00
2019-02-10T06:09:54.426Z,11.57
2019-02-10T06:12:29.138Z,10.43
2019-02-10T06:15:08.902Z,9.55
2019-02-10T06:17:41.615Z,10.80
2019-02-10T06:20:17.262Z,11.95
2019-02-10T06:22:50.946Z,11.03
2019-02-10T06:25:24.829Z,11.18
2019-02-10T06:28:02.868Z,10.87
2019-02-10T06:30:40.209Z,12.85
2019-02-10T06:33:14.658Z,12.28
2019-02-10T06:35:49.961Z,10.03
2019-02-10T06:38:23.957Z,11.63
2019-02-10T06:40:57.401Z,9.00
2019-02-10T06:43:31.587Z,9.05
2019-02-10T06:46:05.120Z,8.03
2019-02-10T06:48:37.729Z,11.60
2019-02-10T06:51:12.026Z,12.30
2019-02-10T06:53:45.596Z,11.70
2019-02-10T06:56:21.350Z,9.30
2019-02-10T06:58:53.416Z,11.45
2019-02-10T07:01:27.020Z,8.63
2019-02-10T07:04:04.670Z,11.45
2019-02-10T07:06:45.060Z,9.78
2019-02-10T07:09:18.163Z,9.40
2019-02-10T07:11:51.109Z,10.13
2019-02-10T07:14:25.709Z,10.93
2019-02-10T07:20:14.432Z,10.45
2019-02-10T07:22:53.296Z,10.72
2019-02-10T07:25:49.861Z,9.83
2019-02-10T07:28:31.003Z,10.80
2019-02-10T07:31:11.046Z,10.45
2019-02-10T07:34:11.376Z,9.93
2019-02-10T07:36:59.849Z,8.98
2019-02-10T07:40:03.575Z,9.95
2019-02-10T07:43:01.383Z,9.43
2019-02-10T07:45:52.267Z,10.23
2019-02-10T07:48:42.160Z,9.58
2019-02-10T07:51:37.849Z,10.75
2019-02-10T07:54:12.308Z,8.68
2019-02-10T07:59:55.247Z,12.07
2019-02-10T08:05:31.029Z,7.12
2019-02-10T08:08:18.249Z,10.80
2019-02-10T08:11:31.061Z,9.73
2019-02-10T08:17:35.384Z,10.85
2019-02-10T08:20:23.336Z,9.98
2019-02-10T08:26:16.800Z,8.93
2019-02-10T08:29:08.204Z,8.10
2019-02-10T08:32:02.824Z,7.40
2019-02-10T08:37:25.993Z,8.83
2019-02-10T08:40:39.111Z,8.78
2019-02-10T08:46:39.352Z,7.92
2019-02-10T08:52:28.515Z,10.00
2019-02-10T08:57:40.202Z,7.75
2019-02-10T09:02:52.331Z,9.98
2019-02-10T09:08:01.574Z,7.35
2019-02-10T09:13:14.346Z,10.75
2019-02-10T09:18:23.723Z,10.90
2019-02-10T09:23:31.019Z,9.45
2019-02-10T09:53:23.597Z,11.80
2019-02-10T09:56:04.038Z,7.03
2019-02-10T09:58:40.591Z,10.30
2019-02-10T10:01:14.879Z,8.67
2019-02-10T10:03:48.265Z,7.93
2019-02-10T10:06:28.014Z,12.00
2019-02-10T10:09:05.173Z,9.43
2019-02-10T10:11:43.244Z,9.33
2019-02-10T10:14:14.447Z,10.00
2019-02-10T10:16:50.514Z,10.13
2019-02-10T10:19:23.612Z,7.67
2019-02-10T10:22:05.719Z,11.20
2019-02-10T10:24:50.166Z,10.10
2019-02-10T10:29:59.702Z,10.50
2019-02-10T10:32:35.017Z,9.10
2019-02-10T10:35:09.651Z,9.80
2019-02-10T10:37:41.638Z,10.90
2019-02-10T10:40:19.232Z,11.97
2019-02-10T10:44:53.362Z,11.23
2019-02-10T10:47:27.084Z,11.10
2019-02-10T10:49:59.394Z,10.03
2019-02-10T10:52:34.666Z,13.50
2019-02-10T10:55:04.748Z,9.67
2019-02-10T10:57:37.088Z,11.90
2019-02-10T11:00:11.929Z,9.57
2019-02-10T11:02:50.576Z,13.77
2019-02-10T11:05:23.343Z,10.80
2019-02-10T11:07:59.917Z,13.87
2019-02-10T11:10:31.357Z,12.77
2019-02-10T11:13:05.771Z,10.63
2019-02-10T11:15:39.274Z,8.57
2019-02-10T11:18:15.274Z,13.73
2019-02-10T11:20:46.696Z,9.03
2019-02-10T11:23:22.192Z,8.90
2019-02-10T11:25:57.668Z,12.23
2019-02-10T11:28:34.391Z,9.97
2019-02-10T11:31:05.778Z,12.03
2019-02-10T11:36:09.992Z,11.30
2019-02-10T11:38:48.766Z,10.97
2019-02-10T11:41:20.533Z,9.57
2019-02-10T11:43:54.965Z,10.27
2019-02-10T11:46:30.098Z,11.47
2019-02-10T11:51:34.569Z,11.13
2019-02-10T11:54:11.865Z,10.13
2019-02-10T11:56:43.273Z,8.73
2019-02-10T12:01:49.257Z,8.10
2019-02-10T12:06:56.326Z,7.67
2019-02-10T12:09:33.807Z,10.20
2019-02-10T12:12:03.816Z,8.23
2019-02-10T12:17:08.206Z,9.47
2019-02-10T12:22:14.944Z,7.50
2019-02-10T12:24:52.364Z,9.60
2019-02-10T12:27:28.516Z,12.00
2019-02-10T12:30:06.845Z,14.23
2019-02-10T12:32:40.296Z,9.47
2019-02-10T12:35:21.688Z,8.40
2019-02-10T12:37:58.291Z,9.70
2019-02-10T12:40:29.426Z,10.50
2019-02-10T12:45:36.858Z,9.10
2019-02-10T12:48:14.264Z,10.50
2019-02-10T12:50:45.998Z,8.83
2019-02-10T12:53:21.646Z,7.47
2019-02-10T12:55:53.616Z,15.03
2019-02-10T13:01:50.746Z,7.03
2019-02-10T13:06:56.613Z,6.43
2019-02-10T13:09:33.862Z,8.43
2019-02-10T13:12:04.640Z,8.10
2019-02-10T13:14:39.924Z,9.33
2019-02-10T13:17:10.226Z,8.67
2019-02-10T13:20:04.882Z,6.93
2019-02-10T13:22:36.659Z,8.20
2019-02-10T13:27:50.512Z,7.83
2019-02-10T13:30:23.925Z,11.83
2019-02-10T13:32:55.645Z,7.63
2019-02-10T13:35:30.152Z,11.30
2019-02-10T13:38:01.617Z,9.27
2019-02-10T13:40:37.813Z,8.53
2019-02-10T13:43:09.983Z,9.23
2019-02-10T13:45:45.058Z,11.03
2019-02-10T13:51:18.174Z,8.77
2019-02-10T13:56:48.499Z,8.03
2019-02-10T14:02:17.964Z,9.13
2019-02-10T14:04:52.256Z,8.43
2019-02-10T14:07:26.670Z,7.57
2019-02-10T14:09:57.258Z,10.10
2019-02-10T14:12:32.520Z,8.77
2019-02-10T14:18:03.491Z,5.33
2019-02-10T14:20:35.115Z,7.10
2019-02-10T14:23:11.925Z,12.90
2019-02-10T14:25:42.827Z,8.70
2019-02-10T14:28:21.872Z,10.47
2019-02-10T14:30:51.908Z,8.47
2019-02-10T14:33:25.047Z,8.97
2019-02-10T14:35:54.896Z,8.50
2019-02-10T14:38:36.281Z,6.27
2019-02-10T14:41:01.554Z,6.83
2019-02-10T14:43:35.611Z,8.57
2019-02-10T14:46:07.020Z,9.20
2019-02-10T14:48:40.643Z,8.30
2019-02-10T14:51:13.348Z,10.93
2019-02-10T14:53:48.065Z,7.77
2019-02-10T14:56:17.724Z,9.17
2019-02-10T14:58:50.470Z,6.80
2019-02-10T15:01:20.992Z,10.53
2019-02-10T15:03:57.170Z,9.37
2019-02-10T15:06:30.293Z,7.23
2019-02-10T15:09:19.438Z,7.63
2019-02-10T15:11:49.889Z,6.53
2019-02-10T15:14:23.645Z,7.53
2019-02-10T15:17:00.783Z,8.23
2019-02-10T15:19:35.187Z,7.70
2019-02-10T15:22:07.819Z,12.13
2019-02-10T15:24:43.200Z,8.77
2019-02-10T15:27:19.002Z,13.00
2019-02-10T15:29:54.556Z,10.70
2019-02-10T15:32:25.925Z,7.90
2019-02-10T15:35:03.421Z,7.80
2019-02-10T15:37:33.616Z,10.27
2019-02-10T15:40:30.591Z,7.60
2019-02-10T15:43:06.302Z,11.73
2019-02-10T15:45:36.890Z,12.73
2019-02-10T15:48:11.459Z,8.57
2019-02-10T15:50:42.276Z,9.47
2019-02-10T15:53:16.789Z,12.97
2019-02-10T15:55:49.105Z,9.43
2019-02-10T15:58:27.848Z,10.07
2019-02-10T16:00:57.491Z,10.73
2019-02-10T16:03:31.724Z,12.93
2019-02-10T16:06:02.673Z,9.70
2019-02-10T16:08:36.877Z,9.20
2019-02-10T16:11:08.971Z,10.33
2019-02-10T16:13:43.838Z,11.63
2019-02-10T16:16:16.971Z,14.03
2019-02-10T16:18:50.801Z,15.33
2019-02-10T16:21:24.717Z,17.77
2019-02-10T16:23:59.212Z,10.90
2019-02-10T16:26:29.845Z,13.40
2019-02-10T16:29:07.870Z,9.47
2019-02-10T16:31:38.444Z,9.83
2019-02-10T16:34:14.695Z,12.00
2019-02-10T16:36:45.971Z,13.50
2019-02-10T16:39:21.154Z,15.30
2019-02-10T16:41:55.923Z,14.83
2019-02-10T16:44:31.247Z,11.40
2019-02-10T16:47:02.864Z,12.10
2019-02-10T16:49:37.739Z,13.13
2019-02-10T16:52:10.640Z,14.27
2019-02-10T16:54:46.859Z,12.23
2019-02-10T16:57:17.425Z,18.20
2019-02-10T17:02:28.885Z,15.00
2019-02-10T17:05:06.449Z,15.43
2019-02-10T17:07:37.803Z,14.47
2019-02-10T17:10:17.149Z,14.60
2019-02-10T17:15:45.259Z,15.73
2019-02-10T17:18:19.247Z,13.77
2019-02-10T17:20:57.363Z,14.47
2019-02-10T17:23:28.749Z,14.37
2019-02-10T17:28:38.404Z,11.00
2019-02-10T17:31:14.432Z,16.27
2019-02-10T17:33:44.430Z,15.93
2019-02-10T17:36:19.856Z,14.10
2019-02-10T17:38:48.417Z,16.13
2019-02-10T17:43:59.860Z,14.10
2019-02-10T17:46:34.214Z,18.30
2019-02-10T17:49:14.356Z,15.47
2019-02-10T17:51:47.443Z,19.57
2019-02-10T17:54:21.905Z,11.97
2019-02-10T17:56:56.735Z,18.67
2019-02-10T17:59:25.002Z,16.13
2019-02-10T18:02:00.458Z,20.80
2019-02-10T18:04:37.387Z,16.07
2019-02-10T18:07:08.116Z,19.83
2019-02-10T18:09:37.922Z,17.90
2019-02-10T18:12:09.580Z,19.07
2019-02-10T18:14:55.719Z,15.43
2019-02-10T18:20:17.760Z,19.07
2019-02-10T18:25:29.062Z,17.23
2019-02-10T18:30:45.171Z,13.60
2019-02-10T18:36:13.167Z,5.50
2019-02-10T18:41:39.326Z,3.67
2019-02-10T18:50:01.464Z,1.50
2019-02-10T18:55:12.144Z,6.37
2019-02-10T19:00:26.326Z,6.70
2019-02-10T19:05:36.203Z,2.30
2019-02-10T19:08:16.307Z,1.47
2019-02-10T19:10:50.071Z,1.83
2019-02-10T19:16:25.327Z,2.07
2019-02-10T19:21:44.877Z,1.13
2019-02-10T19:32:42.320Z,1.97
2019-02-10T19:35:21.834Z,3.80
2019-02-10T19:37:53.921Z,1.63
2019-02-10T19:40:28.194Z,0.63
2019-02-10T19:43:01.618Z,0.43
2019-02-10T19:45:49.758Z,1.17
2019-02-10T19:48:32.610Z,1.40
2019-02-10T19:51:16.480Z,0.23
2019-02-10T19:53:56.572Z,0.50
2019-02-10T19:56:29.546Z,0.80
2019-02-10T19:59:01.251Z,1.33
2019-02-10T20:01:38.053Z,1.47
2019-02-10T20:04:10.336Z,0.93
2019-02-10T20:06:41.602Z,1.90
2019-02-10T20:09:24.645Z,2.67
2019-02-10T20:12:03.886Z,1.90
2019-02-10T20:14:30.501Z,0.83
2019-02-10T20:17:11.086Z,1.40
2019-02-10T20:19:48.425Z,1.10
2019-02-10T20:22:30.416Z,1.63
2019-02-10T20:25:09.290Z,1.10
2019-02-10T20:27:53.358Z,1.73
2019-02-10T20:30:26.267Z,1.10
2019-02-10T20:33:04.193Z,1.03
2019-02-10T20:35:43.082Z,1.00
2019-02-10T20:38:15.466Z,1.73
2019-02-10T20:40:53.802Z,1.73
2019-02-10T20:43:27.071Z,1.80
2019-02-10T20:46:14.827Z,2.37
2019-02-10T20:48:50.715Z,4.63
2019-02-10T20:51:24.245Z,2.77
2019-02-10T20:54:06.082Z,1.70
2019-02-10T20:56:42.129Z,0.60
2019-02-10T20:59:16.810Z,3.33
2019-02-10T21:02:04.908Z,1.37
2019-02-10T21:04:49.099Z,1.00
2019-02-10T21:07:20.580Z,2.03
2019-02-10T21:09:53.517Z,0.43
2019-02-10T21:12:41.680Z,1.60
2019-02-10T21:15:20.225Z,0.70
2019-02-10T21:17:53.743Z,1.00
2019-02-10T21:20:38.109Z,1.27
2019-02-10T21:23:12.352Z,2.97
2019-02-10T21:25:52.561Z,3.00
2019-02-10T21:28:19.155Z,3.47
2019-02-10T21:30:59.149Z,2.23
2019-02-10T21:33:46.411Z,1.20
2019-02-10T21:36:21.996Z,1.63
2019-02-10T21:39:09.840Z,1.37
2019-02-10T21:41:44.562Z,1.40
2019-02-10T21:44:22.651Z,2.10
2019-02-10T21:47:04.368Z,1.20
2019-02-10T21:49:35.915Z,0.70
2019-02-10T21:52:05.762Z,2.27
2019-02-10T21:54:39.382Z,4.60
2019-02-10T21:57:12.714Z,0.80
2019-02-10T21:59:43.577Z,1.70
2019-02-10T22:02:17.359Z,1.90
2019-02-10T22:04:46.399Z,2.00
2019-02-10T22:07:17.804Z,1.47
2019-02-10T22:09:47.409Z,0.80
2019-02-10T22:12:19.248Z,1.60
2019-02-10T22:14:49.705Z,0.60
2019-02-10T22:17:22.545Z,0.63
2019-02-10T22:19:53.771Z,0.70
2019-02-10T22:22:24.363Z,0.53
2019-02-10T22:24:57.141Z,0.70
2019-02-10T22:27:28.742Z,0.53
2019-02-10T22:29:58.528Z,1.07
2019-02-10T22:32:29.375Z,1.10
2019-02-10T22:35:00.755Z,0.93
2019-02-10T22:37:30.587Z,0.40
2019-02-10T22:40:02.304Z,1.73
2019-02-10T22:42:32.100Z,2.13
2019-02-10T22:45:03.995Z,0.43
2019-02-10T22:47:39.179Z,2.27
2019-02-10T22:50:18.821Z,0.50
2019-02-10T22:52:49.523Z,3.80
2019-02-10T22:55:22.209Z,1.23
2019-02-10T22:57:56.669Z,2.50
2019-02-10T23:00:53.432Z,1.27
2019-02-10T23:03:23.975Z,3.00
2019-02-10T23:05:58.349Z,1.07
2019-02-10T23:08:30.175Z,0.63
2019-02-10T23:11:03.020Z,0.93
2019-02-10T23:13:32.900Z,0.60
2019-02-10T23:16:05.051Z,0.67
2019-02-10T23:18:52.624Z,0.67
2019-02-10T23:21:25.331Z,3.03
2019-02-10T23:23:55.646Z,1.20
2019-02-10T23:26:31.822Z,1.80
2019-02-10T23:29:05.569Z,1.23
2019-02-10T23:31:40.075Z,0.93
2019-02-10T23:34:13.053Z,1.30
2019-02-10T23:36:45.304Z,1.23
2019-02-10T23:39:17.708Z,0.63
2019-02-10T23:41:49.361Z,0.87
2019-02-10T23:44:23.162Z,0.63
2019-02-10T23:47:02.221Z,1.27
2019-02-10T23:49:37.614Z,1.50
2019-02-10T23:52:08.923Z,0.60
2019-02-10T23:54:42.926Z,0.87
2019-02-10T23:57:13.675Z,0.67
2019-02-10T23:59:44.306Z,0.60
